Time;durP1;ratioP1;P1;durP2;ratioP2;P2;SDS_P1;SDS_P2;PMS_P1;PMS_P2;Temp;Humidity;BMP_temperature;BMP_pressure;BME280_temperature;BME280_humidity;BME280_pressure;Samples;Min_cycle;Max_cycle;Signal;HPM_P1;HPM_P2
2022/03/06 00:02:06;;;;;;;35.05;18.70;;;0.60;99.90;;;;;;5076154;28;20040;-64
2022/03/06 00:04:32;;;;;;;25.90;14.75;;;0.50;99.90;;;;;;5077348;28;20050;-64
2022/03/06 00:06:58;;;;;;;20.40;11.50;;;0.60;99.90;;;;;;5072447;28;20123;-64
2022/03/06 00:09:23;;;;;;;18.52;10.70;;;0.50;99.90;;;;;;5071079;28;20120;-63
2022/03/06 00:11:50;;;;;;;19.42;11.20;;;0.50;99.90;;;;;;5077743;28;20044;-64
2022/03/06 00:14:16;;;;;;;19.70;11.30;;;0.50;99.90;;;;;;5076136;28;20044;-65
2022/03/06 00:16:41;;;;;;;19.05;11.40;;;0.50;99.90;;;;;;5080781;28;20048;-63
2022/03/06 00:19:07;;;;;;;18.20;10.73;;;0.50;99.90;;;;;;5089316;28;20040;-63
2022/03/06 00:21:34;;;;;;;19.88;10.95;;;0.50;99.90;;;;;;5073381;28;20048;-65
2022/03/06 00:24:00;;;;;;;19.25;11.38;;;0.50;99.90;;;;;;5083539;28;20083;-63
2022/03/06 00:26:26;;;;;;;20.17;12.23;;;0.50;99.90;;;;;;5081927;28;20116;-65
2022/03/06 00:28:52;;;;;;;19.23;11.55;;;0.50;99.90;;;;;;5075820;28;20444;-64
2022/03/06 00:31:18;;;;;;;18.33;11.52;;;0.50;99.90;;;;;;5072911;28;20716;-64
2022/03/06 00:33:43;;;;;;;19.98;12.25;;;0.50;99.90;;;;;;5077342;28;20115;-64
2022/03/06 00:36:09;;;;;;;18.85;12.30;;;0.40;99.90;;;;;;5075578;28;20051;-64
2022/03/06 00:38:34;;;;;;;19.45;12.15;;;0.40;99.90;;;;;;5073061;28;20068;-63
2022/03/06 00:41:00;;;;;;;21.67;12.20;;;0.40;99.90;;;;;;5077546;28;20044;-63
2022/03/06 00:43:26;;;;;;;18.33;11.85;;;0.40;99.90;;;;;;5079495;28;20440;-63
2022/03/06 00:45:51;;;;;;;20.60;13.60;;;0.40;99.90;;;;;;5082090;28;20475;-64
2022/03/06 00:48:17;;;;;;;19.70;12.50;;;0.30;99.90;;;;;;5079774;28;20070;-63
2022/03/06 00:50:42;;;;;;;21.05;13.27;;;0.30;99.90;;;;;;5083009;28;20040;-63
2022/03/06 00:53:08;;;;;;;21.13;14.02;;;0.30;99.90;;;;;;5080936;28;20059;-64
2022/03/06 00:55:34;;;;;;;21.50;13.10;;;0.30;99.90;;;;;;5080965;28;20071;-65
2022/03/06 00:58:05;;;;;;;22.15;13.60;;;0.30;99.90;;;;;;5079795;28;20120;-64
2022/03/06 01:00:35;;;;;;;20.88;13.43;;;0.30;99.90;;;;;;5080238;28;20090;-64
2022/03/06 01:03:03;;;;;;;22.35;13.52;;;0.30;99.90;;;;;;5081302;28;20032;-65
2022/03/06 01:05:28;;;;;;;22.25;14.38;;;0.30;99.90;;;;;;5076418;28;20044;-65
2022/03/06 01:07:54;;;;;;;21.63;14.07;;;0.30;99.90;;;;;;5077509;28;20359;-64
2022/03/06 01:10:19;;;;;;;21.60;13.57;;;0.30;99.90;;;;;;5079842;28;20054;-64
2022/03/06 01:12:45;;;;;;;21.75;13.85;;;0.20;99.90;;;;;;5081137;28;20073;-63
2022/03/06 01:15:11;;;;;;;22.13;14.00;;;0.20;99.90;;;;;;5079067;28;20056;-64
2022/03/06 01:17:36;;;;;;;21.33;14.18;;;0.10;99.90;;;;;;5081620;28;20040;-63
2022/03/06 01:20:03;;;;;;;20.15;13.80;;;0.10;99.90;;;;;;5082645;28;20082;-64
2022/03/06 01:22:29;;;;;;;20.15;13.55;;;0.20;99.90;;;;;;5079909;28;20076;-65
2022/03/06 01:24:54;;;;;;;19.33;13.65;;;0.20;99.90;;;;;;5078752;28;20074;-64
2022/03/06 01:27:20;;;;;;;22.00;13.60;;;0.20;99.90;;;;;;5081703;28;20135;-64
2022/03/06 01:29:46;;;;;;;20.17;13.98;;;0.20;99.90;;;;;;5089125;28;20131;-64
2022/03/06 01:32:11;;;;;;;22.95;14.60;;;0.20;99.90;;;;;;5080120;28;20058;-63
2022/03/06 01:34:37;;;;;;;23.00;15.00;;;0.20;99.90;;;;;;5090760;28;20036;-65
2022/03/06 01:37:03;;;;;;;20.05;13.77;;;0.20;99.90;;;;;;5080923;28;21210;-63
2022/03/06 01:39:28;;;;;;;20.35;14.55;;;0.10;99.90;;;;;;5077503;28;20443;-66
2022/03/06 01:41:54;;;;;;;20.23;13.57;;;0.20;99.90;;;;;;5079912;28;20055;-64
2022/03/06 01:44:19;;;;;;;20.48;14.32;;;0.20;99.90;;;;;;5077066;28;20367;-64
2022/03/06 01:46:46;;;;;;;22.35;14.52;;;0.20;99.90;;;;;;5080021;28;20398;-64
2022/03/06 01:49:12;;;;;;;20.48;13.82;;;0.20;99.90;;;;;;5080688;28;20082;-63
2022/03/06 01:51:38;;;;;;;21.00;14.23;;;0.20;99.90;;;;;;5077877;28;20044;-63
2022/03/06 01:54:03;;;;;;;19.75;13.75;;;0.30;99.90;;;;;;5081648;28;20055;-63
2022/03/06 01:56:29;;;;;;;20.75;14.07;;;0.30;99.90;;;;;;5091046;28;20050;-63
2022/03/06 01:58:56;;;;;;;22.05;14.32;;;0.30;99.90;;;;;;5091401;28;20043;-63
2022/03/06 02:01:22;;;;;;;19.60;13.65;;;0.30;99.90;;;;;;5081021;28;20087;-65
2022/03/06 02:03:48;;;;;;;21.33;14.50;;;0.30;99.90;;;;;;5089521;28;20811;-64
2022/03/06 02:06:15;;;;;;;20.85;14.30;;;0.30;99.90;;;;;;5081945;28;20051;-64
2022/03/06 02:08:41;;;;;;;21.58;14.38;;;0.30;99.90;;;;;;5091817;28;20177;-64
2022/03/06 02:11:09;;;;;;;21.80;14.07;;;0.30;99.90;;;;;;5078976;28;20131;-63
2022/03/06 02:13:34;;;;;;;20.90;14.63;;;0.30;99.90;;;;;;5095965;28;20044;-63
2022/03/06 02:16:01;;;;;;;19.40;14.00;;;0.30;99.90;;;;;;5091341;28;20063;-64
2022/03/06 02:18:26;;;;;;;20.02;13.93;;;0.30;99.90;;;;;;5081920;28;20044;-64
2022/03/06 02:20:52;;;;;;;19.98;14.02;;;0.30;99.90;;;;;;5082375;28;20043;-63
2022/03/06 02:23:17;;;;;;;20.45;14.25;;;0.30;99.90;;;;;;5085792;28;20584;-64
2022/03/06 02:25:43;;;;;;;19.95;13.90;;;0.30;99.90;;;;;;5088059;28;20043;-63
2022/03/06 02:28:10;;;;;;;20.08;13.75;;;0.30;99.90;;;;;;5094243;28;20428;-64
2022/03/06 02:30:39;;;;;;;20.00;14.25;;;0.30;99.90;;;;;;5088724;28;20548;-65
2022/03/06 02:33:07;;;;;;;21.00;14.45;;;0.30;99.90;;;;;;5110287;27;20127;-65
2022/03/06 02:35:34;;;;;;;21.92;14.68;;;0.30;99.90;;;;;;5082398;28;20049;-63
2022/03/06 02:38:00;;;;;;;21.45;13.73;;;0.30;99.90;;;;;;5099999;28;20044;-64
2022/03/06 02:40:26;;;;;;;22.70;14.98;;;0.30;99.90;;;;;;5080565;28;20040;-64
2022/03/06 02:42:53;;;;;;;21.08;14.60;;;0.30;99.90;;;;;;5083705;28;20108;-64
2022/03/06 02:45:23;;;;;;;22.20;14.82;;;0.30;99.90;;;;;;5082426;28;20373;-64
2022/03/06 02:47:50;;;;;;;19.02;13.27;;;0.30;99.90;;;;;;5069088;28;20048;-64
2022/03/06 02:50:18;;;;;;;22.10;14.25;;;0.30;99.90;;;;;;5072404;28;20044;-63
2022/03/06 02:52:44;;;;;;;19.58;12.65;;;0.30;99.90;;;;;;5109217;27;20040;-63
2022/03/06 02:55:11;;;;;;;20.23;13.02;;;0.30;99.90;;;;;;5081402;28;20040;-64
2022/03/06 02:57:37;;;;;;;22.10;13.52;;;0.30;99.90;;;;;;5085803;28;20055;-64
2022/03/06 03:00:06;;;;;;;34.20;13.13;;;0.30;99.90;;;;;;5084130;28;20138;-63
2022/03/06 03:02:31;;;;;;;18.80;13.45;;;0.30;99.90;;;;;;5080519;28;20524;-63
2022/03/06 03:04:57;;;;;;;20.60;12.98;;;0.30;99.90;;;;;;5091482;28;20094;-64
2022/03/06 03:07:22;;;;;;;22.08;12.77;;;0.30;99.90;;;;;;5087345;28;20138;-64
2022/03/06 03:09:48;;;;;;;19.02;13.13;;;0.30;99.90;;;;;;5079955;28;20067;-64
2022/03/06 03:12:13;;;;;;;19.42;12.85;;;0.30;99.90;;;;;;5087441;28;20146;-65
2022/03/06 03:14:39;;;;;;;20.10;12.55;;;0.20;99.90;;;;;;5083226;28;20047;-64
2022/03/06 03:17:05;;;;;;;17.80;11.75;;;0.20;99.90;;;;;;5091900;28;20751;-64
2022/03/06 03:19:31;;;;;;;17.40;12.30;;;0.20;99.90;;;;;;5085610;28;20041;-63
2022/03/06 03:21:57;;;;;;;18.50;12.27;;;0.20;99.90;;;;;;5073394;28;20046;-63
2022/03/06 03:24:24;;;;;;;17.85;11.70;;;0.20;99.90;;;;;;5086926;28;20110;-65
2022/03/06 03:26:49;;;;;;;19.02;12.52;;;0.20;99.90;;;;;;5100221;28;20051;-65
2022/03/06 03:29:15;;;;;;;21.58;12.43;;;0.20;99.90;;;;;;5111188;27;20108;-64
2022/03/06 03:31:41;;;;;;;20.45;12.48;;;0.10;99.90;;;;;;5078053;28;20496;-65
2022/03/06 03:34:06;;;;;;;21.40;12.35;;;0.10;99.90;;;;;;5076928;28;20123;-65
2022/03/06 03:36:32;;;;;;;19.42;12.90;;;0.10;99.90;;;;;;5071650;28;20047;-65
2022/03/06 03:38:57;;;;;;;18.48;11.77;;;0.10;99.90;;;;;;5076414;28;20049;-63
2022/03/06 03:41:24;;;;;;;17.35;11.90;;;0.10;99.90;;;;;;5106894;27;20044;-63
2022/03/06 03:43:50;;;;;;;20.05;12.07;;;0.00;99.90;;;;;;5073926;28;20359;-63
2022/03/06 03:46:16;;;;;;;17.15;11.93;;;0.00;99.90;;;;;;5077673;28;20043;-65
2022/03/06 03:48:41;;;;;;;18.88;12.23;;;0.00;99.90;;;;;;5110362;27;20070;-64
2022/03/06 03:51:07;;;;;;;21.58;12.57;;;0.00;99.90;;;;;;5075653;28;20347;-64
2022/03/06 03:53:32;;;;;;;19.13;11.77;;;-0.10;99.90;;;;;;5083245;28;20114;-63
2022/03/06 03:55:58;;;;;;;16.20;11.20;;;-0.10;99.90;;;;;;5079103;28;20040;-65
2022/03/06 03:58:23;;;;;;;19.05;11.68;;;-0.10;99.90;;;;;;5056574;28;20442;-65
2022/03/06 04:00:55;;;;;;;17.55;11.48;;;0.00;99.90;;;;;;5072644;28;20079;-64
2022/03/06 04:03:21;;;;;;;17.17;11.40;;;0.00;99.90;;;;;;5076035;28;20083;-64
2022/03/06 04:05:46;;;;;;;17.00;11.57;;;0.00;99.90;;;;;;5078258;28;20115;-64
2022/03/06 04:08:12;;;;;;;17.15;11.45;;;0.00;99.90;;;;;;5077436;28;20055;-63
2022/03/06 04:10:38;;;;;;;17.25;11.38;;;0.00;99.90;;;;;;5072695;28;20044;-63
2022/03/06 04:13:03;;;;;;;16.10;11.10;;;0.00;99.90;;;;;;5078497;28;20040;-64
2022/03/06 04:15:29;;;;;;;15.43;10.60;;;0.00;99.90;;;;;;5079665;28;20041;-64
2022/03/06 04:17:54;;;;;;;17.42;11.75;;;0.00;99.90;;;;;;5071747;28;20497;-63
2022/03/06 04:20:20;;;;;;;17.58;11.60;;;0.00;99.90;;;;;;5074012;28;20166;-63
2022/03/06 04:22:46;;;;;;;16.33;10.68;;;0.00;99.90;;;;;;5080939;28;20036;-63
2022/03/06 04:25:12;;;;;;;16.50;10.77;;;0.00;99.90;;;;;;5074206;28;20400;-64
2022/03/06 04:27:37;;;;;;;16.20;10.70;;;-0.10;99.90;;;;;;5073425;28;20451;-66
2022/03/06 04:30:04;;;;;;;18.00;11.75;;;-0.10;99.90;;;;;;5075071;28;20044;-63
2022/03/06 04:32:30;;;;;;;17.38;11.00;;;0.00;99.90;;;;;;5084852;28;20048;-64
2022/03/06 04:34:55;;;;;;;17.58;11.27;;;0.00;99.90;;;;;;5075994;28;20363;-64
2022/03/06 04:37:21;;;;;;;17.67;11.32;;;0.00;99.90;;;;;;5087754;28;20097;-64
2022/03/06 04:39:46;;;;;;;16.20;11.32;;;0.00;99.90;;;;;;5073658;28;20470;-65
2022/03/06 04:42:12;;;;;;;18.60;11.60;;;0.00;99.90;;;;;;5075099;28;20040;-64
2022/03/06 04:44:37;;;;;;;16.17;10.48;;;0.00;99.90;;;;;;5076981;28;20420;-64
2022/03/06 04:47:03;;;;;;;16.30;10.77;;;0.00;99.90;;;;;;5073418;28;20044;-64
2022/03/06 04:49:29;;;;;;;16.52;10.65;;;0.00;99.90;;;;;;5074916;28;20040;-64
2022/03/06 04:51:54;;;;;;;15.48;10.68;;;0.00;99.90;;;;;;5076910;28;20147;-63
2022/03/06 04:54:20;;;;;;;19.13;12.30;;;0.00;99.90;;;;;;5075287;28;20085;-64
2022/03/06 04:56:46;;;;;;;15.00;11.13;;;-0.10;99.90;;;;;;5074611;28;20101;-64
2022/03/06 04:59:13;;;;;;;16.75;11.85;;;-0.10;99.90;;;;;;5076107;28;20457;-64
2022/03/06 05:01:39;;;;;;;15.23;11.68;;;-0.10;99.90;;;;;;5075103;28;20040;-64
2022/03/06 05:04:04;;;;;;;17.70;11.38;;;-0.10;99.90;;;;;;5070074;28;20047;-64
2022/03/06 05:06:30;;;;;;;19.15;12.13;;;-0.10;99.90;;;;;;5075208;28;20423;-64
2022/03/06 05:08:56;;;;;;;17.23;12.07;;;-0.10;99.90;;;;;;5071497;28;20044;-65
2022/03/06 05:11:22;;;;;;;17.48;12.05;;;-0.10;99.90;;;;;;5073824;28;20091;-64
2022/03/06 05:13:48;;;;;;;18.80;11.48;;;-0.20;99.90;;;;;;5078261;28;20040;-63
2022/03/06 05:16:14;;;;;;;17.30;11.05;;;-0.20;99.90;;;;;;5074647;28;20032;-65
2022/03/06 05:18:39;;;;;;;16.02;11.10;;;-0.30;99.90;;;;;;5073087;28;20037;-64
2022/03/06 05:21:05;;;;;;;17.70;10.32;;;-0.30;99.90;;;;;;5073575;28;20036;-65
2022/03/06 05:23:31;;;;;;;17.50;10.75;;;-0.30;99.90;;;;;;5076840;28;20083;-64
2022/03/06 05:25:57;;;;;;;15.63;10.50;;;-0.30;99.90;;;;;;5071471;28;20386;-63
2022/03/06 05:28:23;;;;;;;16.95;10.25;;;-0.30;99.90;;;;;;5079534;28;20135;-64
2022/03/06 05:30:49;;;;;;;13.48;9.48;;;-0.30;99.90;;;;;;5080254;28;20051;-63
2022/03/06 05:33:15;;;;;;;14.68;9.90;;;-0.30;99.90;;;;;;5078002;28;20377;-64
2022/03/06 05:35:40;;;;;;;14.63;9.80;;;-0.30;99.90;;;;;;5077559;28;20097;-64
2022/03/06 05:38:06;;;;;;;15.35;9.60;;;-0.30;99.90;;;;;;5079917;28;20036;-64
2022/03/06 05:40:33;;;;;;;14.60;9.25;;;-0.30;99.90;;;;;;5102067;28;20040;-63
2022/03/06 05:42:59;;;;;;;13.75;9.23;;;-0.30;99.90;;;;;;5084460;28;20049;-64
2022/03/06 05:45:24;;;;;;;14.20;8.65;;;-0.30;99.90;;;;;;5086493;28;20035;-63
2022/03/06 05:47:50;;;;;;;12.45;8.63;;;-0.20;99.90;;;;;;5092299;28;20109;-63
2022/03/06 05:50:16;;;;;;;11.52;8.43;;;-0.20;99.90;;;;;;5086491;28;20036;-64
2022/03/06 05:52:42;;;;;;;15.23;8.45;;;-0.20;99.90;;;;;;5079858;28;20048;-64
2022/03/06 05:55:08;;;;;;;14.40;9.18;;;-0.20;99.90;;;;;;5078414;28;20143;-64
2022/03/06 05:57:34;;;;;;;13.32;8.48;;;-0.20;99.90;;;;;;5089066;28;20127;-63
2022/03/06 05:59:59;;;;;;;12.93;7.93;;;-0.20;99.90;;;;;;5084246;28;20115;-64
2022/03/06 06:02:25;;;;;;;12.52;8.43;;;-0.20;99.90;;;;;;5081012;28;20343;-66
2022/03/06 06:04:51;;;;;;;12.35;7.70;;;-0.20;99.90;;;;;;5074845;28;20146;-64
2022/03/06 06:07:17;;;;;;;12.35;7.57;;;-0.10;99.90;;;;;;5073597;28;20045;-65
2022/03/06 06:09:42;;;;;;;12.45;7.30;;;-0.10;99.90;;;;;;5078413;28;20064;-65
2022/03/06 06:12:08;;;;;;;11.13;7.40;;;-0.10;99.90;;;;;;5078607;28;20032;-66
2022/03/06 06:14:34;;;;;;;12.75;7.85;;;-0.10;99.90;;;;;;5110103;27;20158;-63
2022/03/06 06:17:00;;;;;;;11.77;7.60;;;-0.10;99.90;;;;;;5078602;28;20112;-64
2022/03/06 06:19:26;;;;;;;12.55;7.30;;;-0.10;99.90;;;;;;5080138;28;20105;-64
2022/03/06 06:21:51;;;;;;;13.43;7.07;;;-0.10;99.90;;;;;;5073301;28;20044;-63
2022/03/06 06:24:17;;;;;;;11.05;7.43;;;-0.10;99.90;;;;;;5073821;28;20094;-65
2022/03/06 06:26:45;;;;;;;10.95;6.30;;;0.00;99.90;;;;;;5074022;28;20043;-64
2022/03/06 06:29:12;;;;;;;11.40;6.63;;;0.00;99.90;;;;;;5073613;28;20066;-65
2022/03/06 06:31:38;;;;;;;10.10;6.30;;;0.00;99.90;;;;;;5079142;28;20065;-63
2022/03/06 06:34:03;;;;;;;12.90;6.63;;;0.10;99.90;;;;;;5074672;28;20032;-63
2022/03/06 06:36:29;;;;;;;12.45;6.57;;;0.10;99.90;;;;;;5084448;28;20055;-64
2022/03/06 06:38:55;;;;;;;11.25;6.90;;;0.10;99.90;;;;;;5076071;28;20972;-66
2022/03/06 06:41:20;;;;;;;12.98;6.40;;;0.10;99.90;;;;;;5075654;28;20072;-63
2022/03/06 06:43:46;;;;;;;11.55;6.55;;;0.10;99.90;;;;;;5077145;28;20032;-64
2022/03/06 06:46:11;;;;;;;10.05;6.07;;;0.10;99.90;;;;;;5077990;28;20055;-63
2022/03/06 06:48:38;;;;;;;13.40;6.55;;;0.20;99.90;;;;;;5079311;28;20044;-63
2022/03/06 06:51:04;;;;;;;10.55;6.20;;;0.20;99.90;;;;;;5076006;28;20039;-65
2022/03/06 06:53:29;;;;;;;9.90;6.18;;;0.30;99.90;;;;;;5075390;28;20047;-63
2022/03/06 06:55:55;;;;;;;10.52;6.18;;;0.30;99.90;;;;;;5080000;28;20036;-64
2022/03/06 06:58:21;;;;;;;12.43;6.35;;;0.30;99.90;;;;;;5079105;28;20672;-64
2022/03/06 07:00:46;;;;;;;9.90;5.78;;;0.40;99.90;;;;;;5075247;28;20121;-64
2022/03/06 07:03:12;;;;;;;12.15;6.38;;;0.40;99.90;;;;;;5077714;28;20100;-66
2022/03/06 07:05:38;;;;;;;9.43;5.30;;;0.40;99.90;;;;;;5088057;28;20043;-63
2022/03/06 07:08:04;;;;;;;9.57;5.78;;;0.50;99.90;;;;;;5086429;28;20047;-63
2022/03/06 07:10:29;;;;;;;10.00;5.93;;;0.50;99.90;;;;;;5086100;28;20048;-64
2022/03/06 07:12:55;;;;;;;9.93;5.53;;;0.60;99.90;;;;;;5072586;28;20048;-64
2022/03/06 07:15:28;;;;;;;8.57;5.20;;;0.60;99.90;;;;;;5083924;28;20048;-65
2022/03/06 07:18:00;;;;;;;11.73;5.82;;;0.60;99.90;;;;;;5080400;28;20096;-63
2022/03/06 07:20:26;;;;;;;11.43;5.32;;;0.70;99.90;;;;;;5086655;28;20036;-62
2022/03/06 07:22:52;;;;;;;10.52;5.35;;;0.70;99.90;;;;;;5083701;28;20156;-64
2022/03/06 07:25:19;;;;;;;12.23;5.47;;;0.80;99.90;;;;;;5080210;28;20060;-63
2022/03/06 07:27:44;;;;;;;9.25;5.53;;;0.80;99.90;;;;;;5089653;28;20040;-63
2022/03/06 07:30:11;;;;;;;8.25;5.32;;;0.90;99.90;;;;;;5079133;28;20105;-64
2022/03/06 07:32:50;;;;;;;8.88;5.18;;;0.90;99.90;;;;;;5080585;28;20111;-63
2022/03/06 07:35:17;;;;;;;12.85;5.40;;;0.90;99.90;;;;;;5080968;28;20135;-63
2022/03/06 07:37:43;;;;;;;9.38;5.25;;;0.90;99.90;;;;;;5083926;28;20036;-63
2022/03/06 07:40:11;;;;;;;8.88;5.45;;;0.90;99.90;;;;;;5082483;28;20047;-64
2022/03/06 07:42:37;;;;;;;9.07;5.32;;;0.90;99.90;;;;;;5085692;28;20050;-64
2022/03/06 07:45:03;;;;;;;11.27;4.95;;;1.00;99.90;;;;;;5084025;28;20040;-65
2022/03/06 07:47:29;;;;;;;8.18;4.90;;;0.90;99.90;;;;;;5085783;28;20127;-63
2022/03/06 07:49:55;;;;;;;8.88;4.80;;;1.00;99.90;;;;;;5080422;28;20440;-64
2022/03/06 07:52:20;;;;;;;8.20;4.43;;;1.00;99.90;;;;;;5080456;28;20065;-64
2022/03/06 07:54:46;;;;;;;9.25;4.90;;;1.00;99.90;;;;;;5084250;28;20065;-65
2022/03/06 07:57:11;;;;;;;8.77;4.55;;;1.00;99.90;;;;;;5086661;28;20040;-66
2022/03/06 07:59:37;;;;;;;9.07;4.18;;;1.00;99.90;;;;;;5083854;28;20038;-64
2022/03/06 08:02:03;;;;;;;7.85;4.47;;;1.00;99.90;;;;;;5083329;28;20059;-64
2022/03/06 08:04:29;;;;;;;7.72;4.07;;;1.10;99.90;;;;;;5087402;28;20044;-65
2022/03/06 08:06:54;;;;;;;9.10;4.57;;;1.10;99.90;;;;;;5071627;28;20044;-65
2022/03/06 08:09:20;;;;;;;8.30;4.13;;;1.20;99.90;;;;;;5083502;28;20118;-64
2022/03/06 08:11:46;;;;;;;7.22;3.80;;;1.20;99.90;;;;;;5083978;28;20036;-63
2022/03/06 08:14:11;;;;;;;7.43;4.28;;;1.20;99.90;;;;;;5088619;28;20500;-65
2022/03/06 08:16:38;;;;;;;7.90;4.28;;;1.20;99.90;;;;;;5088818;28;20143;-63
2022/03/06 08:19:04;;;;;;;9.40;3.90;;;1.20;99.90;;;;;;5081273;28;20441;-63
2022/03/06 08:21:30;;;;;;;8.02;4.05;;;1.30;99.90;;;;;;5085315;28;20048;-64
2022/03/06 08:23:55;;;;;;;8.43;4.00;;;1.40;99.90;;;;;;5085089;28;20105;-65
2022/03/06 08:26:23;;;;;;;7.38;3.45;;;1.40;99.90;;;;;;5086319;28;20226;-66
2022/03/06 08:28:49;;;;;;;5.70;3.38;;;1.50;99.90;;;;;;5085560;28;20091;-64
2022/03/06 08:31:14;;;;;;;9.38;3.83;;;1.50;99.90;;;;;;5079838;28;20051;-67
2022/03/06 08:33:40;;;;;;;8.43;4.07;;;1.60;99.90;;;;;;5079745;28;20040;-63
2022/03/06 08:36:06;;;;;;;8.27;3.80;;;1.60;99.90;;;;;;5087864;28;20035;-65
2022/03/06 08:38:31;;;;;;;7.15;3.80;;;1.70;99.90;;;;;;5095823;28;20045;-64
2022/03/06 08:40:57;;;;;;;6.80;3.28;;;1.70;99.90;;;;;;5079919;28;20072;-64
2022/03/06 08:43:22;;;;;;;6.07;3.05;;;1.80;99.90;;;;;;5089196;28;20074;-64
2022/03/06 08:45:48;;;;;;;9.02;3.70;;;1.80;99.90;;;;;;5084151;28;20136;-64
2022/03/06 08:48:13;;;;;;;5.53;3.00;;;1.90;99.90;;;;;;5082063;28;20041;-64
2022/03/06 08:50:39;;;;;;;5.18;2.78;;;2.00;99.90;;;;;;5085380;28;20194;-63
2022/03/06 08:53:06;;;;;;;7.38;3.08;;;2.10;99.90;;;;;;5081629;28;20164;-64
2022/03/06 08:55:32;;;;;;;6.30;2.80;;;2.10;99.90;;;;;;5083588;28;20083;-65
2022/03/06 08:57:57;;;;;;;4.85;3.00;;;2.20;99.90;;;;;;5078747;28;20354;-65
2022/03/06 09:00:23;;;;;;;7.05;2.88;;;2.20;99.90;;;;;;5078938;28;20056;-65
2022/03/06 09:02:49;;;;;;;5.07;2.70;;;2.30;99.90;;;;;;5079479;28;20098;-65
2022/03/06 09:05:14;;;;;;;5.97;3.25;;;2.30;99.90;;;;;;5079890;28;20556;-64
2022/03/06 09:07:40;;;;;;;5.72;2.60;;;2.40;99.90;;;;;;5088255;28;20037;-65
2022/03/06 09:10:06;;;;;;;4.80;2.88;;;2.40;99.90;;;;;;5085660;28;20350;-64
2022/03/06 09:12:32;;;;;;;5.57;3.00;;;2.50;99.90;;;;;;5079792;28;20647;-65
2022/03/06 09:14:59;;;;;;;6.57;3.00;;;2.60;99.90;;;;;;5090381;28;20059;-66
2022/03/06 09:17:25;;;;;;;4.75;2.58;;;2.60;99.90;;;;;;5090482;28;20044;-66
2022/03/06 09:19:50;;;;;;;5.40;2.92;;;2.70;99.90;;;;;;5089571;28;20465;-64
2022/03/06 09:22:16;;;;;;;7.07;3.05;;;2.80;99.90;;;;;;5077776;28;20056;-67
2022/03/06 09:24:42;;;;;;;5.85;2.63;;;2.90;99.90;;;;;;5111676;27;20050;-65
2022/03/06 09:27:07;;;;;;;7.50;3.35;;;2.90;99.90;;;;;;5091435;28;20047;-65
2022/03/06 09:29:33;;;;;;;4.70;2.92;;;3.00;99.40;;;;;;5080715;28;20493;-65
2022/03/06 09:31:58;;;;;;;5.82;2.72;;;3.00;99.70;;;;;;5095257;28;20054;-65
2022/03/06 09:34:24;;;;;;;6.10;3.15;;;3.10;99.90;;;;;;5089579;28;20123;-65
2022/03/06 09:36:49;;;;;;;5.15;2.40;;;3.10;99.60;;;;;;5087888;28;20135;-66
2022/03/06 09:39:15;;;;;;;6.55;3.00;;;3.20;98.80;;;;;;5085744;28;20510;-67
2022/03/06 09:41:42;;;;;;;6.57;3.20;;;3.30;98.30;;;;;;5085943;28;20066;-67
2022/03/06 09:44:10;;;;;;;6.15;2.97;;;3.30;98.30;;;;;;5085647;28;20043;-65
2022/03/06 09:46:37;;;;;;;5.32;2.83;;;3.40;97.80;;;;;;5084638;28;20071;-67
2022/03/06 09:49:04;;;;;;;6.38;3.35;;;3.40;98.00;;;;;;5085850;28;20086;-66
2022/03/06 09:51:40;;;;;;;7.45;3.13;;;3.50;97.90;;;;;;5086492;28;20124;-65
2022/03/06 09:54:11;;;;;;;4.40;2.47;;;3.60;96.60;;;;;;5098251;28;20152;-65
2022/03/06 09:56:37;;;;;;;7.65;3.13;;;3.60;97.60;;;;;;5088583;28;20036;-65
2022/03/06 09:59:03;;;;;;;5.47;2.83;;;3.70;97.40;;;;;;5090788;28;20047;-65
2022/03/06 10:01:29;;;;;;;5.70;3.08;;;3.70;97.30;;;;;;5098603;28;20040;-68
2022/03/06 10:03:54;;;;;;;6.13;2.80;;;3.80;97.00;;;;;;5092562;28;20051;-66
2022/03/06 10:06:20;;;;;;;8.25;3.38;;;3.80;96.60;;;;;;5094449;28;20048;-65
2022/03/06 10:08:45;;;;;;;7.05;3.40;;;3.80;94.60;;;;;;5089514;28;20044;-65
2022/03/06 10:11:12;;;;;;;5.75;2.90;;;3.90;95.10;;;;;;5081356;28;20055;-66
2022/03/06 10:13:39;;;;;;;5.72;3.20;;;3.90;95.30;;;;;;5083463;28;20455;-66
2022/03/06 10:16:11;;;;;;;7.03;3.40;;;3.90;95.20;;;;;;5082777;28;20104;-66
2022/03/06 10:18:40;;;;;;;5.35;2.75;;;4.00;94.00;;;;;;5084884;28;20492;-66
2022/03/06 10:21:41;;;;;;;7.47;3.05;;;4.00;92.10;;;;;;5088250;28;20156;-65
2022/03/06 10:24:08;;;;;;;7.47;2.70;;;4.10;93.20;;;;;;5043227;28;20096;-67
2022/03/06 10:26:36;;;;;;;4.43;2.60;;;4.10;91.20;;;;;;5087373;28;20044;-65
2022/03/06 10:29:11;;;;;;;6.55;2.78;;;4.20;92.40;;;;;;5089630;28;20146;-66
2022/03/06 10:31:52;;;;;;;5.88;2.80;;;4.20;90.90;;;;;;5099714;28;20063;-66
2022/03/06 10:34:18;;;;;;;5.93;2.85;;;4.20;91.00;;;;;;5090621;28;20477;-65
2022/03/06 10:36:46;;;;;;;5.30;2.85;;;4.20;90.40;;;;;;5093663;28;20044;-65
2022/03/06 10:39:20;;;;;;;6.93;2.80;;;4.30;89.30;;;;;;5090440;28;20100;-66
2022/03/06 10:41:47;;;;;;;3.95;2.20;;;4.30;86.30;;;;;;5097918;28;20091;-66
2022/03/06 10:44:14;;;;;;;4.50;2.47;;;4.30;85.80;;;;;;5087080;28;20055;-65
2022/03/06 10:46:41;;;;;;;6.38;2.45;;;4.30;86.40;;;;;;5089320;28;20180;-65
2022/03/06 10:49:11;;;;;;;4.30;2.03;;;4.30;85.40;;;;;;5083996;28;20040;-65
2022/03/06 10:51:39;;;;;;;4.50;2.30;;;4.40;81.70;;;;;;5090051;28;20113;-65
2022/03/06 10:54:04;;;;;;;4.45;2.20;;;4.40;81.30;;;;;;5090109;28;20063;-65
2022/03/06 10:56:30;;;;;;;6.32;2.20;;;4.40;80.80;;;;;;5090400;28;20058;-64
2022/03/06 10:58:57;;;;;;;5.30;2.45;;;4.40;81.30;;;;;;5110751;28;20385;-65
2022/03/06 11:01:23;;;;;;;5.63;2.10;;;4.40;78.60;;;;;;5093944;28;20185;-64
2022/03/06 11:03:50;;;;;;;6.07;2.47;;;4.50;79.50;;;;;;5085210;27;20047;-67
2022/03/06 11:06:18;;;;;;;4.20;2.20;;;4.60;81.30;;;;;;5087043;28;20466;-67
2022/03/06 11:08:44;;;;;;;6.28;2.28;;;4.60;79.30;;;;;;5085841;28;20063;-66
2022/03/06 11:11:12;;;;;;;3.97;2.10;;;4.60;77.40;;;;;;5078826;28;20044;-67
2022/03/06 11:13:38;;;;;;;6.47;2.13;;;4.70;76.50;;;;;;5086484;28;20440;-65
2022/03/06 11:16:04;;;;;;;3.83;2.17;;;4.70;75.20;;;;;;5094915;28;20062;-65
2022/03/06 11:18:30;;;;;;;5.07;2.30;;;4.70;76.50;;;;;;5086191;28;20080;-67
2022/03/06 11:20:59;;;;;;;6.45;2.20;;;4.80;78.20;;;;;;5092902;28;20036;-66
2022/03/06 11:23:41;;;;;;;5.72;2.35;;;4.80;76.80;;;;;;5091388;28;20113;-67
2022/03/06 11:26:39;;;;;;;6.07;2.17;;;4.80;76.30;;;;;;5086561;28;20189;-65
2022/03/06 11:29:26;;;;;;;5.18;2.40;;;4.90;75.70;;;;;;5094818;28;20358;-66
2022/03/06 11:31:53;;;;;;;5.13;2.22;;;4.90;77.60;;;;;;5085487;28;20116;-66
2022/03/06 11:34:51;;;;;;;5.72;2.45;;;4.90;75.50;;;;;;5086295;28;20176;-66
2022/03/06 11:37:16;;;;;;;4.72;1.98;;;5.00;75.80;;;;;;5071561;28;20139;-66
2022/03/06 11:39:42;;;;;;;7.38;2.50;;;5.00;75.70;;;;;;5092414;28;20048;-66
2022/03/06 11:42:09;;;;;;;4.95;2.13;;;5.00;74.80;;;;;;5068107;28;20051;-66
2022/03/06 11:44:47;;;;;;;5.20;2.40;;;5.00;72.60;;;;;;5086593;28;20040;-66
2022/03/06 11:47:19;;;;;;;5.57;2.20;;;5.00;75.00;;;;;;5091126;28;20043;-67
2022/03/06 11:50:02;;;;;;;6.43;2.33;;;5.10;74.40;;;;;;5099256;28;20083;-65
2022/03/06 11:52:32;;;;;;;5.40;2.20;;;5.20;74.20;;;;;;5082085;28;20040;-64
2022/03/06 11:54:58;;;;;;;5.25;2.25;;;5.20;73.30;;;;;;5085533;28;20073;-67
2022/03/06 11:57:47;;;;;;;4.63;2.22;;;5.20;71.60;;;;;;5097610;28;20434;-65
2022/03/06 12:00:15;;;;;;;4.05;2.20;;;5.20;71.70;;;;;;5084290;28;20048;-64
2022/03/06 12:02:48;;;;;;;4.38;2.20;;;5.20;72.20;;;;;;5089592;28;20316;-66
2022/03/06 12:05:16;;;;;;;4.53;2.00;;;5.20;72.40;;;;;;5087020;28;20135;-68
2022/03/06 12:07:42;;;;;;;5.97;2.15;;;5.20;71.90;;;;;;5086488;28;20043;-68
2022/03/06 12:10:13;;;;;;;5.40;2.33;;;5.20;73.30;;;;;;5087183;28;20110;-66
2022/03/06 12:12:39;;;;;;;4.72;2.20;;;5.30;74.70;;;;;;5084291;28;20044;-66
2022/03/06 12:15:15;;;;;;;4.60;2.33;;;5.30;73.50;;;;;;5081943;28;20037;-67
2022/03/06 12:17:40;;;;;;;3.70;2.05;;;5.30;74.10;;;;;;5060672;28;20052;-66
2022/03/06 12:20:10;;;;;;;5.22;2.47;;;5.40;74.30;;;;;;5087116;28;20051;-66
2022/03/06 12:22:44;;;;;;;4.43;2.30;;;5.40;75.10;;;;;;5097494;28;20405;-65
2022/03/06 12:25:15;;;;;;;5.30;2.63;;;5.50;74.40;;;;;;5089876;28;20105;-64
2022/03/06 12:28:01;;;;;;;6.70;2.63;;;5.50;75.70;;;;;;5092290;28;20054;-66
2022/03/06 12:30:27;;;;;;;;;;;5.60;74.30;;;;;;5091578;28;20130;-66
2022/03/06 12:32:52;;;;;;;6.00;2.30;;;5.60;74.60;;;;;;5092062;28;20003;-64
2022/03/06 12:35:22;;;;;;;5.00;2.53;;;5.70;77.30;;;;;;5088594;28;20032;-64
2022/03/06 12:38:00;;;;;;;6.00;2.80;;;5.70;76.30;;;;;;5099897;28;20080;-64
2022/03/06 12:40:30;;;;;;;6.22;2.40;;;5.80;77.50;;;;;;5114598;27;20055;-65
2022/03/06 12:43:06;;;;;;;6.35;2.50;;;5.80;75.40;;;;;;5077554;28;20036;-65
2022/03/06 12:45:33;;;;;;;4.82;2.40;;;5.80;74.30;;;;;;5092058;28;20047;-65